Denver, CO

4:16 PM MST on December 17, 2014 (GMT -0700)
Denver | Change Station
CLOSE
Current Station
Airport
Location: Denver,
Elevation: 5430 ft
Nearby Weather Stations

Elev 5430 ft 39.85 °N, 104.66 °W | Updated 23 minutes ago

Overcast
Overcast
36 °F
Feels Like 30 °F
N
8
Wind Variable Wind from NE

Today
High -- | Low -- °F
--% Chance of Precip.
Yesterday
High -- | Low -- °F
Precip. -- in
7:15 AM 4:37 PM
Waning Crescent, 19% visible
Pressure 29.96 in
Visibility 9.0 miles
Clouds Mostly Cloudy 6500 ft
Mostly Cloudy 8000 ft
Overcast 10000 ft
Windchill 30 °F
Dew Point 28 °F
Humidity 73%
Rainfall 0.00 in
Snow Depth Not available.
UV 0 out of 12
Pollen .10 out of 12
Air Quality Not available.
Flu Activity Not available.
METAR KDEN 172253Z 04007KT 9SM BKN065 BKN080 OVC100 02/M02 A2991 RMK AO2 SLP144 T00221022

More Conditions Fewer Conditions

Pressure 29.96 in
Visibility 9.0 miles
Clouds Mostly Cloudy 6500 ft
Mostly Cloudy 8000 ft
Overcast 10000 ft
Windchill 30 °F
Dew Point 28 °F
Humidity 73%
Rainfall 0.00 in
Snow Depth Not available.
UV 0 out of 12
Pollen .10 out of 12
Air Quality Not available.
Flu Activity Not available.
METAR KDEN 172253Z 04007KT 9SM BKN065 BKN080 OVC100 02/M02 A2991 RMK AO2 SLP144 T00221022

More Conditions Fewer Conditions

10-Day Weather Forecast

Almanac

Astronomy

Dec. 17, 2014 Rise Set
Actual Time
Civil Twilight
Nautical Twilight
Astronomical Twilight
Moon
Length of Visible Light
Length of Day
Tomorrow will be .
, % of the Moon is Illuminated

Today's Extremes

State Highs State Lows

Community

WunderPhotos

Upload Photos

1,778,822 photos uploaded!

WunderBlogs® & News

Nearby

Air Quality

  Air Quality AQ Index Pollutant
Not available.

Snow Depth

Station Depth Elevation

Earthquake Activity

City Distance Mag. Time & Date
Minimum magnitude displayed is 2.5.

Coastal Water Temperatures

Place Temperature

Nearby Weather Stations